createdAt,value
2018-11-06T00:01:41.756Z,5.01
2018-11-06T00:04:09.018Z,5.01
2018-11-06T00:06:36.288Z,4.99
2018-11-06T00:09:04.343Z,4.96
2018-11-06T00:11:38.202Z,4.98
2018-11-06T00:14:05.492Z,4.97
2018-11-06T00:16:32.716Z,4.98
2018-11-06T00:18:59.999Z,5.07
2018-11-06T00:21:27.240Z,5.09
2018-11-06T00:23:55.121Z,5.09
2018-11-06T00:26:22.363Z,5.04
2018-11-06T00:28:49.656Z,5.15
2018-11-06T00:31:16.917Z,5.27
2018-11-06T00:33:44.203Z,5.46
2018-11-06T00:36:11.471Z,5.52
2018-11-06T00:38:38.729Z,5.57
2018-11-06T00:41:05.998Z,5.67
2018-11-06T00:43:33.261Z,5.64
2018-11-06T00:46:00.508Z,5.63
2018-11-06T00:48:27.767Z,5.55
2018-11-06T00:50:54.986Z,5.46
2018-11-06T00:53:22.275Z,5.29
2018-11-06T00:55:49.498Z,5.13
2018-11-06T00:58:16.767Z,4.94
2018-11-06T01:00:43.994Z,4.79
2018-11-06T01:03:11.210Z,4.76
2018-11-06T01:05:38.523Z,4.71
2018-11-06T01:08:05.782Z,4.67
2018-11-06T01:10:33.072Z,4.63
2018-11-06T01:13:00.368Z,4.57
2018-11-06T01:15:27.655Z,4.44
2018-11-06T01:17:56.917Z,4.37
2018-11-06T01:23:14.647Z,4.28
2018-11-06T01:25:41.930Z,4.30
2018-11-06T01:28:09.144Z,4.29
2018-11-06T01:30:36.405Z,4.33
2018-11-06T01:33:03.819Z,4.37
2018-11-06T01:35:31.091Z,4.37
2018-11-06T01:37:58.339Z,4.37
2018-11-06T01:40:25.636Z,4.34
2018-11-06T01:42:52.869Z,4.33
2018-11-06T01:45:20.159Z,4.30
2018-11-06T01:47:47.409Z,4.26
2018-11-06T01:50:16.890Z,4.31
2018-11-06T01:52:45.059Z,4.28
2018-11-06T01:55:12.345Z,4.42
2018-11-06T01:57:39.689Z,4.67
2018-11-06T02:00:09.152Z,4.89
2018-11-06T02:02:36.412Z,5.09
2018-11-06T02:05:03.743Z,5.30
2018-11-06T02:07:31.069Z,5.48
2018-11-06T02:09:58.363Z,5.60
2018-11-06T02:12:25.640Z,5.62
2018-11-06T02:14:52.904Z,5.70
2018-11-06T02:17:20.219Z,5.89
2018-11-06T02:19:47.482Z,5.85
2018-11-06T02:22:14.747Z,5.95
2018-11-06T02:24:42.015Z,5.94
2018-11-06T02:27:09.252Z,5.84
2018-11-06T02:29:36.505Z,5.80
2018-11-06T02:32:03.877Z,5.83
2018-11-06T02:34:31.157Z,5.78
2018-11-06T02:36:58.469Z,5.60
2018-11-06T02:39:25.742Z,5.56
2018-11-06T02:41:53.019Z,5.40
2018-11-06T02:44:20.243Z,5.21
2018-11-06T02:46:47.520Z,5.20
2018-11-06T02:49:14.780Z,5.35
2018-11-06T02:51:42.040Z,5.29
2018-11-06T02:54:09.263Z,5.43
2018-11-06T02:56:36.579Z,5.61
2018-11-06T02:59:03.828Z,5.88
2018-11-06T03:01:31.210Z,6.01
2018-11-06T03:03:58.450Z,5.92
2018-11-06T03:06:25.687Z,5.69
2018-11-06T03:08:52.925Z,5.60
2018-11-06T03:11:20.228Z,5.41
2018-11-06T03:13:47.500Z,5.15
2018-11-06T03:16:14.777Z,5.00
2018-11-06T03:18:42.050Z,4.89
2018-11-06T03:21:09.315Z,4.80
2018-11-06T03:23:36.599Z,4.70
2018-11-06T03:26:03.932Z,4.61
2018-11-06T03:28:31.179Z,4.52
2018-11-06T03:30:58.462Z,4.35
2018-11-06T03:33:25.704Z,4.28
2018-11-06T03:35:53.007Z,4.19
2018-11-06T03:38:20.412Z,4.07
2018-11-06T03:40:47.673Z,3.96
2018-11-06T03:43:14.934Z,3.91
2018-11-06T03:45:42.207Z,3.88
2018-11-06T03:48:09.467Z,3.86
2018-11-06T03:50:36.714Z,3.81
2018-11-06T03:53:04.338Z,3.75
2018-11-06T03:55:31.608Z,3.72
2018-11-06T03:57:58.847Z,3.65
2018-11-06T04:00:26.116Z,3.58
2018-11-06T04:02:53.363Z,3.51
2018-11-06T04:05:20.642Z,3.44
2018-11-06T04:07:48.057Z,3.27
2018-11-06T04:10:15.308Z,3.22
2018-11-06T04:12:42.763Z,3.11
2018-11-06T04:15:11.533Z,2.96
2018-11-06T04:17:40.512Z,2.86
2018-11-06T04:20:09.452Z,2.70
2018-11-06T04:22:38.253Z,2.61
2018-11-06T04:25:05.986Z,2.71
2018-11-06T04:27:33.265Z,2.77
2018-11-06T04:30:00.473Z,2.84
2018-11-06T04:32:27.751Z,2.87
2018-11-06T04:34:54.999Z,2.91
2018-11-06T04:37:22.318Z,2.92
2018-11-06T04:39:49.558Z,2.85
2018-11-06T04:42:16.801Z,2.87
2018-11-06T04:44:44.014Z,2.74
2018-11-06T04:47:11.258Z,2.77
2018-11-06T04:49:38.525Z,2.83
2018-11-06T04:52:05.892Z,2.93
2018-11-06T04:54:33.120Z,3.01
2018-11-06T04:57:00.402Z,3.17
2018-11-06T04:59:27.635Z,3.30
2018-11-06T05:01:54.927Z,3.42
2018-11-06T05:04:22.178Z,3.52
2018-11-06T05:06:49.554Z,3.50
2018-11-06T05:09:16.784Z,3.55
2018-11-06T05:11:44.052Z,3.52
2018-11-06T05:14:11.339Z,3.49
2018-11-06T05:16:38.574Z,3.52
2018-11-06T05:19:06.435Z,3.53
2018-11-06T05:21:33.701Z,3.62
2018-11-06T05:24:01.887Z,3.65
2018-11-06T05:26:29.175Z,3.60
2018-11-06T05:28:56.429Z,3.69
2018-11-06T05:31:23.646Z,3.79
2018-11-06T05:33:50.934Z,3.87
2018-11-06T05:36:18.183Z,3.88
2018-11-06T05:38:45.449Z,3.75
2018-11-06T05:41:12.699Z,3.62
2018-11-06T05:43:39.985Z,3.54
2018-11-06T05:46:07.288Z,3.50
2018-11-06T05:48:34.567Z,3.50
2018-11-06T05:51:01.900Z,3.51
2018-11-06T05:53:29.213Z,3.50
2018-11-06T05:55:56.491Z,3.44
2018-11-06T05:58:24.744Z,3.27
2018-11-06T06:00:52.049Z,3.18
2018-11-06T06:03:19.409Z,3.12
2018-11-06T06:05:46.767Z,3.02
2018-11-06T06:08:14.190Z,2.94
2018-11-06T06:10:41.550Z,2.90
2018-11-06T06:13:08.964Z,2.84
2018-11-06T06:15:37.684Z,2.85
2018-11-06T06:18:05.566Z,2.90
2018-11-06T06:20:33.057Z,2.97
2018-11-06T06:23:01.386Z,3.04
2018-11-06T06:28:37.012Z,3.28
2018-11-06T06:31:04.840Z,3.62
2018-11-06T06:33:32.471Z,3.85
2018-11-06T06:36:02.118Z,3.90
2018-11-06T06:38:29.572Z,3.91
2018-11-06T06:40:57.268Z,3.89
2018-11-06T06:43:25.166Z,3.85
2018-11-06T06:45:52.544Z,3.85
2018-11-06T06:48:20.413Z,3.85
2018-11-06T06:50:47.876Z,3.80
2018-11-06T06:53:15.251Z,3.81
2018-11-06T06:55:42.584Z,3.74
2018-11-06T06:58:10.012Z,3.70
2018-11-06T07:00:37.878Z,3.68
2018-11-06T07:03:05.292Z,3.65
2018-11-06T07:05:32.680Z,3.61
2018-11-06T07:08:00.071Z,3.60
2018-11-06T07:10:27.400Z,3.59
2018-11-06T07:12:54.891Z,3.58
2018-11-06T07:15:22.619Z,3.50
2018-11-06T07:17:50.880Z,3.48
2018-11-06T07:20:19.554Z,3.51
2018-11-06T07:22:47.383Z,3.61
2018-11-06T07:25:15.129Z,3.71
2018-11-06T07:27:44.079Z,3.80
2018-11-06T07:30:15.352Z,3.87
2018-11-06T07:32:43.207Z,3.99
2018-11-06T07:35:11.325Z,4.12
2018-11-06T07:37:39.786Z,4.29
2018-11-06T07:40:09.058Z,4.44
2018-11-06T07:42:37.589Z,4.62
2018-11-06T07:45:07.174Z,4.78
2018-11-06T07:47:35.129Z,4.99
2018-11-06T07:50:02.666Z,5.23
2018-11-06T07:52:30.683Z,5.51
2018-11-06T07:54:58.085Z,5.79
2018-11-06T07:57:25.730Z,6.02
2018-11-06T07:59:54.066Z,6.17
2018-11-06T08:02:21.532Z,6.40
2018-11-06T08:04:48.898Z,6.59
2018-11-06T08:07:16.215Z,6.80
2018-11-06T08:09:43.772Z,7.15
2018-11-06T08:12:11.811Z,7.47
2018-11-06T08:14:39.878Z,7.64
2018-11-06T08:17:07.766Z,7.82
2018-11-06T08:19:35.172Z,8.20
2018-11-06T08:22:02.656Z,8.37
2018-11-06T08:24:31.086Z,8.43
2018-11-06T08:27:00.132Z,8.31
2018-11-06T08:29:31.913Z,8.35
2018-11-06T08:32:04.557Z,8.78
2018-11-06T08:34:37.632Z,9.18
2018-11-06T08:37:19.378Z,9.32
2018-11-06T08:39:59.105Z,9.33
2018-11-06T08:42:40.567Z,9.58
2018-11-06T08:45:22.760Z,9.76
2018-11-06T08:48:05.352Z,9.90
2018-11-06T08:50:46.619Z,10.21
2018-11-06T08:53:28.742Z,10.55
2018-11-06T08:56:09.593Z,10.94
2018-11-06T08:58:51.115Z,11.15
2018-11-06T09:01:19.141Z,11.07
2018-11-06T09:03:47.078Z,11.33
2018-11-06T09:06:15.485Z,11.36
2018-11-06T09:08:43.904Z,11.57
2018-11-06T09:11:26.820Z,11.47
2018-11-06T09:14:08.573Z,11.39
2018-11-06T09:16:49.771Z,11.36
2018-11-06T09:19:30.489Z,11.29
2018-11-06T09:21:57.838Z,11.16
2018-11-06T09:24:25.271Z,10.88
2018-11-06T09:26:53.417Z,10.74
2018-11-06T09:29:20.860Z,10.70
2018-11-06T09:31:48.419Z,10.67
2018-11-06T09:34:15.880Z,10.89
2018-11-06T09:36:43.528Z,11.01
2018-11-06T09:39:11.668Z,11.28
2018-11-06T09:41:39.335Z,11.43
2018-11-06T09:44:07.200Z,11.66
2018-11-06T09:46:35.071Z,11.79
2018-11-06T09:49:02.857Z,11.98
2018-11-06T09:51:30.395Z,12.25
2018-11-06T09:53:58.686Z,12.54
2018-11-06T09:56:26.465Z,12.68
2018-11-06T09:58:54.118Z,12.91
2018-11-06T10:01:21.565Z,13.16
2018-11-06T10:03:50.038Z,13.06
2018-11-06T10:06:17.907Z,12.77
2018-11-06T10:08:46.031Z,12.62
2018-11-06T10:11:13.990Z,12.77
2018-11-06T10:13:43.134Z,12.83
2018-11-06T10:16:13.352Z,12.95
2018-11-06T10:18:41.435Z,13.19
2018-11-06T10:21:09.449Z,13.63
2018-11-06T10:23:37.014Z,13.44
2018-11-06T10:26:04.905Z,13.84
2018-11-06T10:28:32.861Z,13.65
2018-11-06T10:31:00.581Z,13.92
2018-11-06T10:33:28.728Z,13.96
2018-11-06T10:35:56.606Z,13.91
2018-11-06T10:38:24.436Z,13.93
2018-11-06T10:40:52.602Z,14.07
2018-11-06T10:43:20.374Z,14.16
2018-11-06T10:45:47.918Z,14.35
2018-11-06T10:48:15.569Z,14.38
2018-11-06T10:50:44.289Z,14.06
2018-11-06T10:53:12.709Z,13.86
2018-11-06T10:55:41.751Z,13.64
2018-11-06T10:58:09.713Z,13.11
2018-11-06T11:00:43.634Z,13.57
2018-11-06T11:03:27.041Z,13.53
2018-11-06T11:06:08.090Z,13.53
2018-11-06T11:08:35.631Z,13.73
2018-11-06T11:11:05.053Z,14.08
2018-11-06T11:13:33.899Z,14.11
2018-11-06T11:16:04.541Z,14.07
2018-11-06T11:18:32.115Z,14.27
2018-11-06T11:21:02.376Z,14.45
2018-11-06T11:23:30.134Z,14.56
2018-11-06T11:25:57.929Z,14.78
2018-11-06T11:28:25.823Z,14.97
2018-11-06T11:30:54.029Z,14.92
2018-11-06T11:33:21.494Z,14.98
2018-11-06T11:35:51.685Z,14.93
2018-11-06T11:38:19.079Z,14.85
2018-11-06T11:40:47.125Z,14.60
2018-11-06T11:43:29.886Z,14.49
2018-11-06T11:46:10.869Z,14.59
2018-11-06T11:48:39.995Z,14.41
2018-11-06T11:51:08.657Z,14.60
2018-11-06T11:53:36.412Z,14.27
2018-11-06T11:56:05.296Z,14.10
2018-11-06T11:58:34.393Z,13.92
2018-11-06T12:01:02.713Z,13.83
2018-11-06T12:03:30.750Z,13.71
2018-11-06T12:05:59.020Z,13.80
2018-11-06T12:08:31.464Z,13.95
2018-11-06T12:11:02.876Z,14.08
2018-11-06T12:13:45.450Z,14.28
2018-11-06T12:16:26.566Z,14.41
2018-11-06T12:19:08.202Z,14.79
2018-11-06T12:21:36.138Z,15.07
2018-11-06T12:24:04.176Z,14.68
2018-11-06T12:26:31.803Z,14.40
2018-11-06T12:28:59.751Z,14.22
2018-11-06T12:31:27.203Z,14.20
2018-11-06T12:34:09.040Z,14.10
2018-11-06T12:36:50.446Z,14.24
2018-11-06T12:39:18.131Z,14.40
2018-11-06T12:41:45.808Z,14.50
2018-11-06T12:44:13.754Z,14.53
2018-11-06T12:46:43.801Z,14.59
2018-11-06T12:49:12.113Z,14.54
2018-11-06T12:51:41.495Z,14.34
2018-11-06T12:54:09.523Z,14.15
2018-11-06T12:56:37.267Z,14.11
2018-11-06T12:59:07.744Z,14.12
2018-11-06T13:01:35.358Z,13.88
2018-11-06T13:04:03.520Z,13.71
2018-11-06T13:06:31.511Z,13.67
2018-11-06T13:09:00.160Z,13.70
2018-11-06T13:11:28.762Z,13.55
2018-11-06T13:13:56.452Z,13.61
2018-11-06T13:16:24.030Z,13.62
2018-11-06T13:18:51.469Z,13.64
2018-11-06T13:21:18.868Z,13.57
2018-11-06T13:23:46.151Z,13.46
2018-11-06T13:26:14.899Z,13.33
2018-11-06T13:28:42.739Z,13.31
2018-11-06T13:31:10.249Z,13.20
2018-11-06T13:33:41.101Z,13.14
2018-11-06T13:36:08.695Z,13.15
2018-11-06T13:38:36.350Z,13.10
2018-11-06T13:41:04.209Z,13.17
2018-11-06T13:43:32.804Z,13.20
2018-11-06T13:46:01.673Z,13.17
2018-11-06T13:48:31.784Z,13.07
2018-11-06T13:50:59.325Z,13.08
2018-11-06T13:53:30.994Z,12.98
2018-11-06T13:56:00.109Z,12.87
2018-11-06T13:58:32.361Z,12.81
2018-11-06T14:01:00.860Z,12.61
2018-11-06T14:03:29.630Z,12.56
2018-11-06T14:06:01.739Z,12.53
2018-11-06T14:08:34.840Z,12.46
2018-11-06T14:11:07.959Z,12.30
2018-11-06T14:13:40.435Z,12.15
2018-11-06T14:16:11.337Z,12.00
2018-11-06T14:19:05.421Z,11.90
2018-11-06T14:21:40.347Z,11.84
2018-11-06T14:24:21.719Z,11.88
2018-11-06T14:26:52.655Z,11.85
2018-11-06T14:29:20.170Z,11.77
2018-11-06T14:31:47.832Z,11.72
2018-11-06T14:34:15.233Z,11.64
2018-11-06T14:36:42.915Z,11.53
2018-11-06T14:39:10.244Z,11.48
2018-11-06T14:41:37.823Z,11.39
2018-11-06T14:44:05.111Z,11.29
2018-11-06T14:46:32.481Z,11.17
2018-11-06T14:48:59.956Z,11.00
2018-11-06T14:51:27.276Z,10.91
2018-11-06T14:53:54.578Z,10.80
2018-11-06T14:56:21.841Z,10.72
2018-11-06T14:58:49.134Z,10.66
2018-11-06T15:01:16.425Z,10.57
2018-11-06T15:03:43.769Z,10.54
2018-11-06T15:06:11.107Z,10.48
2018-11-06T15:08:38.421Z,10.41
2018-11-06T15:11:05.711Z,10.30
2018-11-06T15:13:36.624Z,10.22
2018-11-06T15:16:03.966Z,10.09
2018-11-06T15:18:31.264Z,9.97
2018-11-06T15:20:58.710Z,9.84
2018-11-06T15:23:25.867Z,9.79
2018-11-06T15:25:53.237Z,9.70
2018-11-06T15:28:20.555Z,9.59
2018-11-06T15:30:47.824Z,9.52
2018-11-06T15:33:15.094Z,9.42
2018-11-06T15:35:42.350Z,9.35
2018-11-06T15:38:09.608Z,9.28
2018-11-06T15:40:36.906Z,9.21
2018-11-06T15:43:04.214Z,9.15
2018-11-06T15:45:31.515Z,9.08
2018-11-06T15:47:58.868Z,8.99
2018-11-06T15:50:26.198Z,8.92
2018-11-06T15:52:53.502Z,8.84
2018-11-06T15:55:20.784Z,8.77
2018-11-06T15:57:48.079Z,8.74
2018-11-06T16:00:17.627Z,8.64
2018-11-06T16:02:45.598Z,8.59
2018-11-06T16:05:13.184Z,8.55
2018-11-06T16:07:40.733Z,8.50
2018-11-06T16:10:10.258Z,8.44
2018-11-06T16:12:52.150Z,8.42
2018-11-06T16:15:33.411Z,8.36
2018-11-06T16:18:01.464Z,8.32
2018-11-06T16:20:28.970Z,8.28
2018-11-06T16:22:56.249Z,8.24
2018-11-06T16:25:23.612Z,8.18
2018-11-06T16:27:50.891Z,8.11
2018-11-06T16:30:19.598Z,8.07
2018-11-06T16:32:46.881Z,8.00
2018-11-06T16:35:16.352Z,7.92
2018-11-06T16:37:44.079Z,7.88
2018-11-06T16:40:11.895Z,7.83
2018-11-06T16:42:39.918Z,7.82
2018-11-06T16:45:09.079Z,7.79
2018-11-06T16:47:36.314Z,7.66
2018-11-06T16:50:11.420Z,7.62
2018-11-06T16:52:38.703Z,7.59
2018-11-06T16:55:06.667Z,7.64
2018-11-06T16:57:33.900Z,7.66
2018-11-06T17:00:01.300Z,7.69
2018-11-06T17:02:28.532Z,7.69
2018-11-06T17:04:55.761Z,7.65
2018-11-06T17:07:23.107Z,7.65
2018-11-06T17:09:50.318Z,7.62
2018-11-06T17:12:17.539Z,7.55
2018-11-06T17:14:44.776Z,7.54
2018-11-06T17:17:12.080Z,7.51
2018-11-06T17:19:39.315Z,7.55
2018-11-06T17:22:06.780Z,7.62
2018-11-06T17:24:34.033Z,7.62
2018-11-06T17:27:02.381Z,7.58
2018-11-06T17:29:29.602Z,7.55
2018-11-06T17:31:56.859Z,7.48
2018-11-06T17:34:24.091Z,7.40
2018-11-06T17:36:51.312Z,7.39
2018-11-06T17:39:18.613Z,7.36
2018-11-06T17:41:45.954Z,7.42
2018-11-06T17:44:13.163Z,7.43
2018-11-06T17:46:40.522Z,7.40
2018-11-06T17:49:07.722Z,7.36
2018-11-06T17:51:34.981Z,7.33
2018-11-06T17:54:02.216Z,7.30
2018-11-06T17:56:29.475Z,7.31
2018-11-06T17:58:56.724Z,7.28
2018-11-06T18:01:24.109Z,7.24
2018-11-06T18:03:51.370Z,7.23
2018-11-06T18:06:18.624Z,7.19
2018-11-06T18:08:45.856Z,7.19
2018-11-06T18:11:13.204Z,7.16
2018-11-06T18:13:40.582Z,7.12
2018-11-06T18:16:07.807Z,7.09
2018-11-06T18:18:35.138Z,7.06
2018-11-06T18:21:02.419Z,7.06
2018-11-06T18:23:29.690Z,7.05
2018-11-06T18:25:57.000Z,7.06
2018-11-06T18:28:24.225Z,7.06
2018-11-06T18:30:51.451Z,7.02
2018-11-06T18:33:18.699Z,7.01
2018-11-06T18:35:45.906Z,7.09
2018-11-06T18:38:13.174Z,7.10
2018-11-06T18:40:40.538Z,7.08
2018-11-06T18:43:07.892Z,7.34
2018-11-06T18:45:35.143Z,7.38
2018-11-06T18:48:02.472Z,7.49
2018-11-06T18:50:29.732Z,7.84
2018-11-06T18:52:57.003Z,7.96
2018-11-06T18:55:24.271Z,7.96
2018-11-06T18:57:51.565Z,7.87
2018-11-06T19:00:20.217Z,7.73
2018-11-06T19:02:48.776Z,7.69
2018-11-06T19:05:16.463Z,7.77
2018-11-06T19:07:43.881Z,7.65
2018-11-06T19:10:12.787Z,7.66
2018-11-06T19:12:40.269Z,7.73
2018-11-06T19:15:10.177Z,7.74
2018-11-06T19:17:38.219Z,7.81
2018-11-06T19:20:05.916Z,7.85
2018-11-06T19:22:33.510Z,8.10
2018-11-06T19:25:08.159Z,8.32
2018-11-06T19:27:35.651Z,8.35
2018-11-06T19:30:03.738Z,8.26
2018-11-06T19:32:32.919Z,8.15
2018-11-06T19:35:00.234Z,8.07
2018-11-06T19:37:27.621Z,7.88
2018-11-06T19:39:54.970Z,7.80
2018-11-06T19:42:22.292Z,7.84
2018-11-06T19:44:49.582Z,8.05
2018-11-06T19:47:17.799Z,8.13
2018-11-06T19:49:45.018Z,8.39
2018-11-06T19:52:12.291Z,8.67
2018-11-06T19:54:39.566Z,8.67
2018-11-06T19:57:06.893Z,8.72
2018-11-06T19:59:34.198Z,8.84
2018-11-06T20:02:01.596Z,9.09
2018-11-06T20:04:28.999Z,9.10
2018-11-06T20:06:57.275Z,9.06
2018-11-06T20:09:24.661Z,8.91
2018-11-06T20:11:52.087Z,8.98
2018-11-06T20:14:19.453Z,8.95
2018-11-06T20:16:46.793Z,9.26
2018-11-06T20:19:14.145Z,9.44
2018-11-06T20:21:41.526Z,9.70
2018-11-06T20:24:08.949Z,9.93
2018-11-06T20:26:36.548Z,9.94
2018-11-06T20:29:04.507Z,9.98
2018-11-06T20:31:31.826Z,9.98
2018-11-06T20:33:59.362Z,10.06
2018-11-06T20:36:26.694Z,10.06
2018-11-06T20:38:54.101Z,9.99
2018-11-06T20:41:21.616Z,9.96
2018-11-06T20:43:49.115Z,9.75
2018-11-06T20:46:16.445Z,9.59
2018-11-06T20:48:43.931Z,9.35
2018-11-06T20:51:11.942Z,9.15
2018-11-06T20:53:39.457Z,8.95
2018-11-06T20:56:06.867Z,8.86
2018-11-06T20:58:34.498Z,8.72
2018-11-06T21:01:02.747Z,8.44
2018-11-06T21:03:30.130Z,8.31
2018-11-06T21:05:57.652Z,8.46
2018-11-06T21:08:24.862Z,8.53
2018-11-06T21:10:53.068Z,8.54
2018-11-06T21:13:20.633Z,8.56
2018-11-06T21:15:48.968Z,8.69
2018-11-06T21:18:18.392Z,8.75
2018-11-06T21:20:45.773Z,8.95
2018-11-06T21:23:13.917Z,9.04
2018-11-06T21:25:41.777Z,9.04
2018-11-06T21:28:08.904Z,9.02
2018-11-06T21:30:36.545Z,8.90
2018-11-06T21:33:03.861Z,8.86
2018-11-06T21:35:31.209Z,8.72
2018-11-06T21:37:58.578Z,8.54
2018-11-06T21:40:26.788Z,8.32
2018-11-06T21:42:54.658Z,8.09
2018-11-06T21:45:21.945Z,7.92
2018-11-06T21:47:49.864Z,7.76
2018-11-06T21:50:17.575Z,7.57
2018-11-06T21:52:45.019Z,7.33
2018-11-06T21:55:13.485Z,7.13
2018-11-06T21:57:41.469Z,7.02
2018-11-06T22:00:11.318Z,6.92
2018-11-06T22:02:38.656Z,6.82
2018-11-06T22:05:07.178Z,6.74
2018-11-06T22:07:34.518Z,6.70
2018-11-06T22:10:01.820Z,6.63
2018-11-06T22:12:29.111Z,6.60
2018-11-06T22:14:56.383Z,6.58
2018-11-06T22:17:23.607Z,6.56
2018-11-06T22:19:51.059Z,6.46
2018-11-06T22:22:19.248Z,6.39
2018-11-06T22:24:46.806Z,6.44
2018-11-06T22:27:14.051Z,6.43
2018-11-06T22:29:41.349Z,6.46
2018-11-06T22:32:08.657Z,6.48
2018-11-06T22:34:36.041Z,6.48
2018-11-06T22:37:03.325Z,6.45
2018-11-06T22:39:30.575Z,6.37
2018-11-06T22:41:57.880Z,6.27
2018-11-06T22:44:25.170Z,6.23
2018-11-06T22:46:52.415Z,6.28
2018-11-06T22:49:19.800Z,6.20
2018-11-06T22:51:47.039Z,6.13
2018-11-06T22:54:14.404Z,6.13
2018-11-06T22:56:41.727Z,6.20
2018-11-06T22:59:09.063Z,6.26
2018-11-06T23:01:36.337Z,6.11
2018-11-06T23:04:03.582Z,6.12
2018-11-06T23:06:30.864Z,6.10
2018-11-06T23:08:58.045Z,6.06
2018-11-06T23:11:25.257Z,6.25
2018-11-06T23:13:52.463Z,6.21
2018-11-06T23:16:19.713Z,6.06
2018-11-06T23:18:46.936Z,6.01
2018-11-06T23:21:14.211Z,5.98
2018-11-06T23:23:41.474Z,5.92
2018-11-06T23:26:08.707Z,5.78
2018-11-06T23:28:35.948Z,5.66
2018-11-06T23:31:03.190Z,5.51
2018-11-06T23:33:30.398Z,5.41
2018-11-06T23:35:57.607Z,5.38
2018-11-06T23:38:24.829Z,5.46
2018-11-06T23:40:52.122Z,5.51
2018-11-06T23:43:19.354Z,5.69
2018-11-06T23:45:46.615Z,5.82
2018-11-06T23:48:13.827Z,5.88
2018-11-06T23:50:41.095Z,6.01
2018-11-06T23:53:08.334Z,6.02
2018-11-06T23:55:35.591Z,6.05
2018-11-06T23:58:02.835Z,6.08
